Time,TemperatureF,DewpointF,PressureIn,WindDirection,WindDirectionDegrees,WindSpeedMPH,WindSpeedGustMPH,Humidity,HourlyPrecipIn,Conditions,Clouds,dailyrainin,SoftwareType,DateUTC
2013-01-08 01:26:00,28.6,23.0,30.20,SSE,166,9.1,9.1,79,0.00,,OVC,0.00,VWS V14.00,2013-01-08 06:26:00,
2013-01-08 01:31:00,28.6,23.0,30.20,SSE,166,9.1,9.1,79,0.00,,OVC,0.00,VWS V14.00,2013-01-08 06:31:00,
2013-01-08 04:15:00,28.6,22.7,30.21,South,177,5.4,9.1,78,0.00,,OVC,0.00,VWS V14.00,2013-01-08 09:15:00,
2013-01-08 04:16:00,28.6,22.7,30.21,South,177,5.4,9.1,78,0.00,,OVC,0.00,VWS V14.00,2013-01-08 09:16:00,
2013-01-08 04:21:00,28.6,22.7,30.21,South,177,5.4,9.1,78,0.00,,OVC,0.00,VWS V14.00,2013-01-08 09:21:00,
2013-01-08 05:06:00,28.5,22.4,30.22,South,183,6.0,9.1,78,0.00,,OVC,0.00,VWS V14.00,2013-01-08 10:06:00,
2013-01-08 05:11:00,28.5,22.4,30.22,South,183,6.0,9.1,78,0.00,,OVC,0.00,VWS V14.00,2013-01-08 10:11:00,
2013-01-08 06:02:00,28.3,22.0,30.23,SW,233,7.8,9.1,77,0.00,,OVC,0.00,VWS V14.00,2013-01-08 11:02:00,
2013-01-08 06:07:00,28.3,22.0,30.23,SW,233,7.8,9.1,77,0.00,,OVC,0.00,VWS V14.00,2013-01-08 11:07:00,
2013-01-08 06:47:00,28.9,22.2,30.24,SW,219,9.0,9.1,76,0.00,,OVC,0.00,VWS V14.00,2013-01-08 11:47:00,
2013-01-08 06:52:00,28.9,22.2,30.24,SW,219,9.0,9.1,76,0.00,,OVC,0.00,VWS V14.00,2013-01-08 11:52:00,
2013-01-08 06:57:00,28.9,22.2,30.24,SW,222,2.0,9.1,76,0.00,,OVC,0.00,VWS V14.00,2013-01-08 11:57:00,
2013-01-08 07:00:00,28.9,22.3,30.25,South,180,7.0,9.1,76,0.00,,SCT,0.00,VWS V14.00,2013-01-08 12:00:00,
2013-01-08 07:02:00,29.0,22.4,30.25,SSW,198,6.3,7.0,76,0.00,,OVC,0.00,VWS V14.00,2013-01-08 12:02:00,
2013-01-08 07:07:00,29.0,22.4,30.25,SSW,198,6.3,7.0,76,0.00,,OVC,0.00,VWS V14.00,2013-01-08 12:07:00,
2013-01-08 07:10:00,28.9,22.3,30.25,SW,214,5.1,7.0,76,0.00,,OVC,0.00,VWS V14.00,2013-01-08 12:10:00,
2013-01-08 07:12:00,28.9,22.3,30.25,SW,214,5.1,7.0,76,0.00,,OVC,0.00,VWS V14.00,2013-01-08 12:12:00,
2013-01-08 07:17:00,28.9,22.3,30.25,SW,214,5.1,7.0,76,0.00,,OVC,0.00,VWS V14.00,2013-01-08 12:17:00,
2013-01-08 07:46:00,29.4,22.8,30.25,SW,214,9.2,9.2,76,0.00,,BKN,0.00,VWS V14.00,2013-01-08 12:46:00,
2013-01-08 07:47:00,29.4,22.8,30.25,SW,214,9.2,9.2,76,0.00,,BKN,0.00,VWS V14.00,2013-01-08 12:47:00,
2013-01-08 07:52:00,29.4,22.8,30.25,SW,214,9.2,9.2,76,0.00,,BKN,0.00,VWS V14.00,2013-01-08 12:52:00,
2013-01-08 08:20:00,30.0,23.5,30.26,SW,231,2.2,16.0,76,0.00,,SCT,0.00,VWS V14.00,2013-01-08 13:20:00,
2013-01-08 08:25:00,30.2,23.6,30.26,SSW,205,7.3,16.0,76,0.00,,SCT,0.00,VWS V14.00,2013-01-08 13:25:00,
2013-01-08 08:30:00,30.1,23.5,30.26,SSW,200,8.1,11.6,76,0.00,,SCT,0.00,VWS V14.00,2013-01-08 13:30:00,
2013-01-08 08:35:00,30.2,23.5,30.27,SSW,210,6.6,12.2,76,0.00,,SCT,0.00,VWS V14.00,2013-01-08 13:35:00,
2013-01-08 08:40:00,30.5,23.8,30.27,SSW,202,6.4,18.3,76,0.00,,SCT,0.00,VWS V14.00,2013-01-08 13:40:00,
2013-01-08 08:45:00,30.7,24.0,30.27,SW,232,8.1,18.3,76,0.00,,SCT,0.00,VWS V14.00,2013-01-08 13:45:00,
2013-01-08 08:50:00,31.0,24.1,30.28,SSW,201,5.0,18.3,75,0.00,,SCT,0.00,VWS V14.00,2013-01-08 13:50:00,
2013-01-08 08:55:00,31.1,24.3,30.28,SW,215,5.2,18.3,76,0.00,,SCT,0.00,VWS V14.00,2013-01-08 13:55:00,
2013-01-08 09:00:00,31.2,24.4,30.28,SW,228,8.1,9.3,76,0.00,,SCT,0.00,VWS V14.00,2013-01-08 14:00:00,
2013-01-08 09:05:00,31.4,24.7,30.28,SSW,201,10.9,12.7,76,0.00,,SCT,0.00,VWS V14.00,2013-01-08 14:05:00,
2013-01-08 09:10:00,31.9,25.0,30.28,SW,225,7.4,12.7,75,0.00,,SCT,0.00,VWS V14.00,2013-01-08 14:10:00,
2013-01-08 09:15:00,32.0,25.0,30.28,SSW,197,4.5,12.7,75,0.00,,SCT,0.00,VWS V14.00,2013-01-08 14:15:00,
2013-01-08 09:20:00,32.1,25.0,30.28,South,173,7.0,12.7,75,0.00,,SCT,0.00,VWS V14.00,2013-01-08 14:20:00,
2013-01-08 09:25:00,32.4,25.2,30.28,SSW,201,7.0,12.7,74,0.00,,SCT,0.00,VWS V14.00,2013-01-08 14:25:00,
2013-01-08 09:30:00,32.4,25.1,30.28,SW,231,10.3,14.8,74,0.00,,SCT,0.00,VWS V14.00,2013-01-08 14:30:00,
2013-01-08 09:35:00,32.6,25.2,30.28,SW,214,5.1,14.8,74,0.00,,SCT,0.00,VWS V14.00,2013-01-08 14:35:00,
2013-01-08 09:40:00,32.7,25.3,30.28,WSW,245,8.0,17.8,74,0.00,,SCT,0.00,VWS V14.00,2013-01-08 14:40:00,
2013-01-08 09:45:00,32.6,25.0,30.28,SSW,208,8.9,17.8,73,0.00,,SCT,0.00,VWS V14.00,2013-01-08 14:45:00,
2013-01-08 09:50:00,32.7,25.4,30.28,SSE,167,0.0,17.8,74,0.00,,SCT,0.00,VWS V14.00,2013-01-08 14:50:00,
2013-01-08 09:55:00,32.7,25.2,30.28,SSW,205,6.3,17.8,74,0.00,,SCT,0.00,VWS V14.00,2013-01-08 14:55:00,
2013-01-08 10:00:00,32.8,25.4,30.28,SSW,204,2.5,12.1,74,0.00,,SCT,0.00,VWS V14.00,2013-01-08 15:00:00,
2013-01-08 10:05:00,32.9,25.4,30.28,SW,219,8.5,12.9,74,0.00,,SCT,0.00,VWS V14.00,2013-01-08 15:05:00,
2013-01-08 10:10:00,32.9,25.5,30.28,SSW,200,7.1,12.9,74,0.00,,SCT,0.00,VWS V14.00,2013-01-08 15:10:00,
2013-01-08 10:15:00,33.1,25.7,30.28,SW,219,5.3,12.9,74,0.00,,SCT,0.00,VWS V14.00,2013-01-08 15:15:00,
2013-01-08 10:20:00,33.3,25.8,30.29,SW,226,11.0,12.9,74,0.00,,SCT,0.00,VWS V14.00,2013-01-08 15:20:00,
2013-01-08 10:25:00,33.3,25.6,30.29,SW,219,8.3,14.4,73,0.00,,SCT,0.00,VWS V14.00,2013-01-08 15:25:00,
2013-01-08 10:30:00,33.4,25.7,30.29,SW,218,6.8,12.4,73,0.00,,SCT,0.00,VWS V14.00,2013-01-08 15:30:00,
2013-01-08 10:35:00,33.5,26.0,30.29,SSW,198,0.0,12.4,74,0.00,,SCT,0.00,VWS V14.00,2013-01-08 15:35:00,
2013-01-08 10:40:00,33.5,25.8,30.29,SW,215,9.8,12.4,73,0.00,,SCT,0.00,VWS V14.00,2013-01-08 15:40:00,
2013-01-08 10:45:00,33.4,25.8,30.29,SSW,208,8.0,12.4,73,0.00,,SCT,0.00,VWS V14.00,2013-01-08 15:45:00,
2013-01-08 10:50:00,33.7,26.0,30.29,WSW,252,6.8,12.4,73,0.00,,SCT,0.00,VWS V14.00,2013-01-08 15:50:00,
2013-01-08 10:55:00,33.5,25.8,30.29,SSW,210,7.5,12.4,73,0.00,,SCT,0.00,VWS V14.00,2013-01-08 15:55:00,
2013-01-08 11:00:00,33.6,25.7,30.29,SSW,207,6.0,14.6,72,0.00,,SCT,0.00,VWS V14.00,2013-01-08 16:00:00,
2013-01-08 11:05:00,33.8,26.0,30.30,SSW,212,8.6,15.0,73,0.00,,SCT,0.00,VWS V14.00,2013-01-08 16:05:00,
2013-01-08 11:10:00,33.9,26.3,30.29,SW,218,7.1,15.0,73,0.00,,SCT,0.00,VWS V14.00,2013-01-08 16:10:00,
2013-01-08 11:15:00,33.9,26.2,30.29,WSW,243,3.5,15.0,73,0.00,,SCT,0.00,VWS V14.00,2013-01-08 16:15:00,
2013-01-08 11:20:00,33.9,26.2,30.30,WSW,243,6.4,15.0,73,0.00,,SCT,0.00,VWS V14.00,2013-01-08 16:20:00,
2013-01-08 11:25:00,34.0,26.4,30.30,SW,226,5.1,15.0,74,0.00,,SCT,0.00,VWS V14.00,2013-01-08 16:25:00,
2013-01-08 11:30:00,34.0,26.2,30.29,WSW,246,6.6,10.1,73,0.00,,SCT,0.00,VWS V14.00,2013-01-08 16:30:00,
2013-01-08 11:35:00,34.1,26.4,30.30,SSW,207,6.9,10.6,73,0.00,,SCT,0.00,VWS V14.00,2013-01-08 16:35:00,
2013-01-08 11:40:00,34.1,26.4,30.30,SW,232,8.7,10.6,73,0.00,,SCT,0.00,VWS V14.00,2013-01-08 16:40:00,
2013-01-08 11:45:00,34.3,26.6,30.30,SSW,211,8.9,10.6,73,0.00,,SCT,0.00,VWS V14.00,2013-01-08 16:45:00,
2013-01-08 11:50:00,34.2,26.8,30.30,SSW,210,4.8,10.6,74,0.00,,SCT,0.00,VWS V14.00,2013-01-08 16:50:00,
2013-01-08 11:55:00,34.2,26.7,30.30,WSW,239,8.1,11.5,74,0.01,,SCT,0.01,VWS V14.00,2013-01-08 16:55:00,
2013-01-08 12:00:00,34.2,26.5,30.30,WSW,238,8.6,10.9,73,0.01,,SCT,0.01,VWS V14.00,2013-01-08 17:00:00,
2013-01-08 12:05:00,34.2,26.7,30.30,SW,228,3.9,10.9,74,0.01,,SCT,0.01,VWS V14.00,2013-01-08 17:05:00,
2013-01-08 12:10:00,34.3,27.0,30.29,SW,228,7.2,10.9,74,0.01,,SCT,0.01,VWS V14.00,2013-01-08 17:10:00,
2013-01-08 12:15:00,34.3,26.8,30.29,SW,219,4.9,15.5,74,0.02,,SCT,0.02,VWS V14.00,2013-01-08 17:15:00,
2013-01-08 12:20:00,34.5,27.1,30.30,SSW,198,3.6,15.5,74,0.01,,SCT,0.02,VWS V14.00,2013-01-08 17:20:00,
2013-01-08 12:25:00,34.4,27.0,30.30,SW,217,8.5,15.5,74,0.02,,SCT,0.03,VWS V14.00,2013-01-08 17:25:00,
2013-01-08 12:30:00,34.4,27.0,30.30,SW,228,5.2,9.7,74,0.02,,SCT,0.03,VWS V14.00,2013-01-08 17:30:00,
2013-01-08 12:35:00,34.3,27.0,30.29,SW,214,3.7,10.3,74,0.02,,SCT,0.03,VWS V14.00,2013-01-08 17:35:00,
2013-01-08 12:40:00,34.7,27.4,30.30,SW,224,7.4,11.4,74,0.03,,SCT,0.04,VWS V14.00,2013-01-08 17:40:00,
2013-01-08 12:45:00,34.6,27.3,30.30,SW,217,8.0,11.4,74,0.03,,SCT,0.04,VWS V14.00,2013-01-08 17:45:00,
2013-01-08 12:50:00,34.4,27.2,30.30,SW,222,7.7,11.4,75,0.02,,SCT,0.04,VWS V14.00,2013-01-08 17:50:00,
2013-01-08 12:55:00,34.6,27.5,30.30,SSW,212,3.9,11.4,75,0.02,,SCT,0.04,VWS V14.00,2013-01-08 17:55:00,
2013-01-08 13:00:00,34.7,27.7,30.30,SW,235,4.0,7.0,75,0.02,,SCT,0.04,VWS V14.00,2013-01-08 18:00:00,
2013-01-08 13:05:00,34.7,27.7,30.31,WSW,242,4.8,10.4,75,0.02,,SCT,0.04,VWS V14.00,2013-01-08 18:05:00,
2013-01-08 13:10:00,34.7,27.8,30.31,SSW,210,6.2,10.4,76,0.02,,SCT,0.04,VWS V14.00,2013-01-08 18:10:00,
2013-01-08 13:15:00,34.7,27.9,30.30,SW,229,4.8,10.4,76,0.02,,SCT,0.04,VWS V14.00,2013-01-08 18:15:00,
2013-01-08 13:20:00,34.8,28.2,30.31,SW,226,4.7,10.4,76,0.01,,SCT,0.04,VWS V14.00,2013-01-08 18:20:00,
2013-01-08 13:25:00,34.8,28.2,30.31,SW,215,1.9,10.4,77,0.02,,SCT,0.05,VWS V14.00,2013-01-08 18:25:00,
2013-01-08 13:30:00,34.9,28.4,30.31,SW,233,0.0,8.5,77,0.02,,SCT,0.05,VWS V14.00,2013-01-08 18:30:00,
2013-01-08 13:35:00,35.0,28.6,30.31,West,259,1.8,8.5,77,0.02,,SCT,0.05,VWS V14.00,2013-01-08 18:35:00,
2013-01-08 13:40:00,35.0,28.8,30.31,SSW,205,4.4,8.5,78,0.02,,SCT,0.05,VWS V14.00,2013-01-08 18:40:00,
2013-01-08 13:45:00,35.1,28.8,30.32,WSW,245,2.7,9.6,78,0.02,,SCT,0.05,VWS V14.00,2013-01-08 18:45:00,
2013-01-08 13:50:00,35.2,29.0,30.32,SW,217,3.1,9.6,78,0.02,,SCT,0.05,VWS V14.00,2013-01-08 18:50:00,
2013-01-08 13:55:00,35.2,28.9,30.32,SSE,150,0.0,9.6,78,0.01,,SCT,0.05,VWS V14.00,2013-01-08 18:55:00,
2013-01-08 14:00:00,35.2,28.7,30.32,SW,224,5.7,9.1,77,0.01,,SCT,0.05,VWS V14.00,2013-01-08 19:00:00,
2013-01-08 14:05:00,35.3,28.9,30.32,SW,222,7.0,9.1,77,0.01,,SCT,0.05,VWS V14.00,2013-01-08 19:05:00,
2013-01-08 14:10:00,35.2,28.9,30.33,SW,224,6.3,9.1,78,0.01,,SCT,0.05,VWS V14.00,2013-01-08 19:10:00,
2013-01-08 14:15:00,35.3,29.1,30.33,SSW,207,2.8,9.1,78,0.02,,SCT,0.06,VWS V14.00,2013-01-08 19:15:00,
2013-01-08 14:21:00,35.3,29.0,30.33,SW,218,8.8,9.1,78,0.02,,SCT,0.06,VWS V14.00,2013-01-08 19:21:00,
2013-01-08 14:26:00,35.4,29.1,30.33,SW,219,8.9,10.1,78,0.02,,SCT,0.06,VWS V14.00,2013-01-08 19:26:00,
2013-01-08 14:30:00,35.3,29.0,30.33,WSW,242,6.0,10.2,78,0.02,,SCT,0.06,VWS V14.00,2013-01-08 19:30:00,
2013-01-08 14:31:00,35.4,29.1,30.33,SW,225,2.3,9.9,78,0.02,,SCT,0.06,VWS V14.00,2013-01-08 19:31:00,
2013-01-08 14:36:00,35.4,29.2,30.34,SSW,198,5.7,9.9,78,0.02,,SCT,0.07,VWS V14.00,2013-01-08 19:36:00,
2013-01-08 14:41:00,35.4,29.1,30.34,SSW,207,7.9,9.9,78,0.02,,SCT,0.07,VWS V14.00,2013-01-08 19:41:00,
2013-01-08 14:46:00,35.5,29.2,30.34,SW,215,5.8,9.9,78,0.02,,SCT,0.07,VWS V14.00,2013-01-08 19:46:00,
2013-01-08 14:51:00,35.5,29.3,30.34,SSW,208,0.0,9.9,78,0.02,,SCT,0.07,VWS V14.00,2013-01-08 19:51:00,
2013-01-08 14:56:00,35.4,29.0,30.34,SW,231,6.3,9.9,77,0.02,,SCT,0.07,VWS V14.00,2013-01-08 19:56:00,
2013-01-08 15:00:00,35.3,29.0,30.34,South,169,3.6,9.9,78,0.02,,SCT,0.07,VWS V14.00,2013-01-08 20:00:00,
2013-01-08 15:01:00,35.4,29.1,30.34,SSW,205,4.0,9.1,78,0.03,,SCT,0.08,VWS V14.00,2013-01-08 20:01:00,
2013-01-08 15:06:00,35.4,29.1,30.34,SSW,210,4.6,9.1,78,0.02,,SCT,0.08,VWS V14.00,2013-01-08 20:06:00,
2013-01-08 15:11:00,35.3,29.2,30.34,SSW,202,4.0,9.1,78,0.02,,SCT,0.08,VWS V14.00,2013-01-08 20:11:00,
2013-01-08 15:16:00,35.2,29.1,30.34,SW,214,6.1,9.1,78,0.02,,SCT,0.08,VWS V14.00,2013-01-08 20:16:00,
2013-01-08 15:21:00,35.4,29.4,30.35,South,170,5.8,9.1,78,0.02,,SCT,0.08,VWS V14.00,2013-01-08 20:21:00,
2013-01-08 15:26:00,35.4,29.4,30.34,SSW,197,2.4,9.1,79,0.02,,SCT,0.08,VWS V14.00,2013-01-08 20:26:00,
2013-01-08 15:30:00,35.3,29.4,30.34,SSW,208,4.7,9.1,79,0.02,,SCT,0.08,VWS V14.00,2013-01-08 20:30:00,
2013-01-08 15:31:00,35.3,29.4,30.34,South,184,3.9,8.4,79,0.03,,SCT,0.09,VWS V14.00,2013-01-08 20:31:00,
2013-01-08 15:36:00,35.3,29.5,30.35,SSW,193,2.9,8.8,79,0.02,,SCT,0.09,VWS V14.00,2013-01-08 20:36:00,
2013-01-08 15:41:00,35.3,29.5,30.35,SSW,198,2.9,8.8,79,0.02,,SCT,0.09,VWS V14.00,2013-01-08 20:41:00,
2013-01-08 15:46:00,35.3,29.6,30.35,SW,219,0.0,8.8,80,0.02,,SCT,0.09,VWS V14.00,2013-01-08 20:46:00,
2013-01-08 15:51:00,35.4,29.8,30.35,SSW,208,4.7,8.8,80,0.02,,SCT,0.09,VWS V14.00,2013-01-08 20:51:00,
2013-01-08 15:56:00,35.3,29.8,30.35,SW,231,4.7,8.8,80,0.02,,SCT,0.09,VWS V14.00,2013-01-08 20:56:00,
2013-01-08 16:00:00,35.3,29.8,30.36,SSW,194,2.7,8.8,80,0.02,,SCT,0.09,VWS V14.00,2013-01-08 21:00:00,
2013-01-08 16:01:00,35.3,29.8,30.36,SW,214,0.0,5.2,80,0.03,,SCT,0.10,VWS V14.00,2013-01-08 21:01:00,
2013-01-08 16:06:00,35.2,29.8,30.36,SSE,166,5.1,6.2,80,0.02,,SCT,0.10,VWS V14.00,2013-01-08 21:06:00,
2013-01-08 16:11:00,35.3,29.9,30.35,South,172,5.7,6.2,81,0.02,,SCT,0.10,VWS V14.00,2013-01-08 21:11:00,
2013-01-08 16:16:00,35.3,30.0,30.36,SW,214,4.2,6.2,81,0.02,,SCT,0.10,VWS V14.00,2013-01-08 21:16:00,
2013-01-08 16:21:00,35.2,30.0,30.36,SW,214,5.0,7.1,81,0.02,,SCT,0.10,VWS V14.00,2013-01-08 21:21:00,
2013-01-08 16:26:00,35.2,29.9,30.36,SW,215,4.0,7.2,81,0.02,,SCT,0.10,VWS V14.00,2013-01-08 21:26:00,
2013-01-08 16:30:00,35.2,30.0,30.36,South,176,2.7,7.2,81,0.02,,SCT,0.10,VWS V14.00,2013-01-08 21:30:00,
2013-01-08 16:31:00,35.2,29.9,30.36,SSW,210,3.4,7.5,81,0.02,,SCT,0.10,VWS V14.00,2013-01-08 21:31:00,
2013-01-08 16:36:00,35.2,30.0,30.36,WSW,240,3.0,7.5,81,0.01,,SCT,0.10,VWS V14.00,2013-01-08 21:36:00,
2013-01-08 16:41:00,35.3,30.1,30.36,SW,215,0.0,7.5,81,0.01,,SCT,0.10,VWS V14.00,2013-01-08 21:41:00,
2013-01-08 16:46:00,35.2,30.1,30.36,SSW,207,0.0,7.5,81,0.01,,SCT,0.10,VWS V14.00,2013-01-08 21:46:00,
2013-01-08 16:51:00,35.3,30.3,30.37,SSW,207,0.0,7.5,82,0.01,,SCT,0.10,VWS V14.00,2013-01-08 21:51:00,
2013-01-08 16:56:00,35.1,30.1,30.36,SSW,208,0.0,8.2,82,0.01,,SCT,0.10,VWS V14.00,2013-01-08 21:56:00,
2013-01-08 17:00:00,35.2,30.2,30.36,SSW,208,0.0,8.2,82,0.01,,SCT,0.10,VWS V14.00,2013-01-08 22:00:00,
2013-01-08 17:01:00,35.2,30.2,30.36,South,180,3.5,5.0,82,0.01,,SCT,0.10,VWS V14.00,2013-01-08 22:01:00,
2013-01-08 17:06:00,35.3,30.3,30.36,South,187,4.6,5.3,82,0.01,,SCT,0.10,VWS V14.00,2013-01-08 22:06:00,
2013-01-08 17:11:00,35.1,30.2,30.36,SSW,202,4.3,6.2,82,0.01,,SCT,0.10,VWS V14.00,2013-01-08 22:11:00,
2013-01-08 17:16:00,35.2,30.3,30.37,SW,221,2.9,6.2,82,0.01,,SCT,0.11,VWS V14.00,2013-01-08 22:16:00,
2013-01-08 17:21:00,35.1,30.2,30.37,South,183,1.6,6.2,82,0.02,,SCT,0.11,VWS V14.00,2013-01-08 22:21:00,
2013-01-08 17:26:00,35.1,30.2,30.37,SSW,202,2.9,6.2,82,0.01,,SCT,0.11,VWS V14.00,2013-01-08 22:26:00,
2013-01-08 17:30:00,35.1,30.2,30.37,SSW,210,0.0,6.2,82,0.01,,SCT,0.11,VWS V14.00,2013-01-08 22:30:00,
2013-01-08 17:31:00,35.1,30.3,30.37,SSW,208,3.8,5.2,82,0.01,,SCT,0.11,VWS V14.00,2013-01-08 22:31:00,
2013-01-08 17:36:00,35.1,30.2,30.37,South,187,0.0,5.2,82,0.01,,SCT,0.11,VWS V14.00,2013-01-08 22:36:00,
2013-01-08 17:41:00,35.1,30.2,30.37,SW,229,5.0,6.0,82,0.01,,SCT,0.11,VWS V14.00,2013-01-08 22:41:00,
2013-01-08 17:46:00,35.1,30.3,30.37,SW,229,2.5,6.0,82,0.01,,SCT,0.11,VWS V14.00,2013-01-08 22:46:00,
2013-01-08 17:51:00,35.1,30.3,30.37,SSW,208,5.2,6.0,82,0.01,,SCT,0.11,VWS V14.00,2013-01-08 22:51:00,
2013-01-08 17:56:00,35.1,30.3,30.37,SW,218,4.8,6.7,82,0.01,,SCT,0.11,VWS V14.00,2013-01-08 22:56:00,
2013-01-08 18:00:00,35.1,30.3,30.37,SSW,202,2.4,6.7,82,0.01,,SCT,0.11,VWS V14.00,2013-01-08 23:00:00,
2013-01-08 18:01:00,35.1,30.4,30.37,South,176,2.0,6.0,83,0.01,,SCT,0.11,VWS V14.00,2013-01-08 23:01:00,
2013-01-08 18:06:00,35.1,30.4,30.37,SW,232,5.0,6.0,83,0.01,,SCT,0.11,VWS V14.00,2013-01-08 23:06:00,
2013-01-08 18:11:00,35.0,30.3,30.37,South,187,2.0,6.8,83,0.01,,SCT,0.11,VWS V14.00,2013-01-08 23:11:00,
2013-01-08 18:16:00,35.0,30.4,30.37,SSW,201,4.2,6.8,83,0.01,,SCT,0.11,VWS V14.00,2013-01-08 23:16:00,
2013-01-08 18:21:00,35.0,30.4,30.37,South,191,2.1,6.8,83,0.01,,SCT,0.11,VWS V14.00,2013-01-08 23:21:00,
2013-01-08 18:26:00,35.0,30.4,30.37,SSW,207,2.8,6.8,83,0.01,,SCT,0.11,VWS V14.00,2013-01-08 23:26:00,
2013-01-08 18:30:00,34.9,30.3,30.37,SSW,202,2.0,6.8,83,0.00,,SCT,0.11,VWS V14.00,2013-01-08 23:30:00,
2013-01-08 18:31:00,35.0,30.5,30.37,South,191,2.6,5.7,83,0.00,,SCT,0.11,VWS V14.00,2013-01-08 23:31:00,
2013-01-08 18:36:00,35.0,30.5,30.38,SSW,210,0.0,5.7,83,0.00,,SCT,0.11,VWS V14.00,2013-01-08 23:36:00,
2013-01-08 18:41:00,35.0,30.5,30.38,SE,127,0.0,5.7,83,0.00,,SCT,0.11,VWS V14.00,2013-01-08 23:41:00,
2013-01-08 18:46:00,34.9,30.4,30.39,SE,141,0.0,5.7,83,0.00,,SCT,0.11,VWS V14.00,2013-01-08 23:46:00,
2013-01-08 18:51:00,34.9,30.4,30.39,ESE,121,0.0,5.7,84,0.00,,SCT,0.11,VWS V14.00,2013-01-08 23:51:00,
2013-01-08 18:56:00,34.9,30.4,30.39,SSE,162,0.0,7.0,84,0.00,,SCT,0.11,VWS V14.00,2013-01-08 23:56:00,
2013-01-08 19:00:00,34.9,30.5,30.39,SSE,162,0.0,7.0,84,0.00,,SCT,0.11,VWS V14.00,2013-01-09 00:00:00,
2013-01-08 19:01:00,34.8,30.4,30.39,SSW,194,1.4,3.4,84,0.00,,SCT,0.11,VWS V14.00,2013-01-09 00:01:00,
2013-01-08 19:06:00,34.7,30.3,30.40,SSW,210,3.7,5.1,84,0.00,,SCT,0.11,VWS V14.00,2013-01-09 00:06:00,
2013-01-08 19:11:00,34.9,30.5,30.40,SW,232,3.0,5.1,84,0.00,,SCT,0.11,VWS V14.00,2013-01-09 00:11:00,
2013-01-08 19:16:00,34.9,30.5,30.40,South,184,0.0,5.1,84,0.00,,SCT,0.11,VWS V14.00,2013-01-09 00:16:00,
2013-01-08 19:21:00,34.9,30.5,30.40,South,184,0.0,5.1,84,0.00,,SCT,0.11,VWS V14.00,2013-01-09 00:21:00,
2013-01-08 19:26:00,34.8,30.4,30.41,SSW,204,1.6,5.1,84,0.00,,SCT,0.11,VWS V14.00,2013-01-09 00:26:00,
2013-01-08 19:30:00,34.9,30.5,30.41,SSW,202,4.4,5.1,84,0.00,,SCT,0.11,VWS V14.00,2013-01-09 00:30:00,
2013-01-08 19:31:00,34.9,30.5,30.41,SSW,193,0.0,4.4,84,0.00,,SCT,0.11,VWS V14.00,2013-01-09 00:31:00,
2013-01-08 19:36:00,34.8,30.4,30.41,South,181,0.0,4.4,84,0.00,,SCT,0.11,VWS V14.00,2013-01-09 00:36:00,
2013-01-08 19:41:00,34.9,30.5,30.41,South,181,0.0,4.4,84,0.01,,SCT,0.12,VWS V14.00,2013-01-09 00:41:00,
2013-01-08 19:46:00,35.0,30.6,30.41,South,172,0.0,4.6,84,0.01,,SCT,0.12,VWS V14.00,2013-01-09 00:46:00,
2013-01-08 19:51:00,35.1,30.7,30.41,South,172,0.0,4.6,84,0.01,,SCT,0.12,VWS V14.00,2013-01-09 00:51:00,
2013-01-08 19:56:00,35.0,30.6,30.41,South,172,0.0,4.6,84,0.01,,SCT,0.12,VWS V14.00,2013-01-09 00:56:00,
2013-01-08 20:00:00,35.0,30.6,30.41,South,172,0.0,4.6,84,0.01,,SCT,0.12,VWS V14.00,2013-01-09 01:00:00,
2013-01-08 20:01:00,34.9,30.5,30.41,South,172,0.0,0.0,84,0.01,,SCT,0.12,VWS V14.00,2013-01-09 01:01:00,
2013-01-08 20:06:00,34.9,30.6,30.41,South,172,0.0,0.0,84,0.01,,SCT,0.12,VWS V14.00,2013-01-09 01:06:00,
2013-01-08 20:11:00,34.9,30.6,30.41,South,172,0.0,0.0,84,0.01,,SCT,0.12,VWS V14.00,2013-01-09 01:11:00,
2013-01-08 20:16:00,35.0,30.9,30.41,South,172,0.0,0.0,85,0.01,,SCT,0.12,VWS V14.00,2013-01-09 01:16:00,
2013-01-08 20:21:00,35.1,30.9,30.41,South,172,0.0,0.0,84,0.01,,SCT,0.12,VWS V14.00,2013-01-09 01:21:00,
2013-01-08 20:26:00,34.9,30.6,30.41,South,172,0.0,0.0,84,0.01,,SCT,0.12,VWS V14.00,2013-01-09 01:26:00,
2013-01-08 20:30:00,35.0,30.7,30.41,South,172,0.0,0.0,84,0.00,,SCT,0.12,VWS V14.00,2013-01-09 01:30:00,
2013-01-08 20:31:00,34.9,30.6,30.41,South,172,0.0,0.0,84,0.00,,SCT,0.12,VWS V14.00,2013-01-09 01:31:00,
2013-01-08 20:36:00,34.9,30.7,30.41,South,172,0.0,0.0,84,0.00,,SCT,0.12,VWS V14.00,2013-01-09 01:36:00,
2013-01-08 20:41:00,34.8,30.6,30.40,South,172,0.0,0.0,85,0.00,,SCT,0.12,VWS V14.00,2013-01-09 01:41:00,
2013-01-08 20:47:00,34.8,30.7,30.41,South,172,0.0,0.0,85,0.00,,SCT,0.12,VWS V14.00,2013-01-09 01:47:00,
2013-01-08 20:52:00,34.9,30.8,30.40,South,172,0.0,0.0,85,0.00,,SCT,0.12,VWS V14.00,2013-01-09 01:52:00,
2013-01-08 20:57:00,34.8,30.6,30.40,South,172,0.0,0.0,85,0.00,,SCT,0.12,VWS V14.00,2013-01-09 01:57:00,
2013-01-08 21:00:00,34.8,30.6,30.40,South,172,0.0,0.0,85,0.00,,SCT,0.12,VWS V14.00,2013-01-09 02:00:00,
2013-01-08 21:02:00,34.7,30.5,30.40,South,172,0.0,0.0,85,0.00,,SCT,0.12,VWS V14.00,2013-01-09 02:02:00,
2013-01-08 21:07:00,34.7,30.7,30.40,South,172,0.0,0.0,85,0.00,,SCT,0.12,VWS V14.00,2013-01-09 02:07:00,
2013-01-08 21:12:00,34.5,30.5,30.40,South,172,0.0,0.0,85,0.00,,SCT,0.12,VWS V14.00,2013-01-09 02:12:00,
2013-01-08 21:17:00,34.6,30.6,30.40,South,172,0.0,0.0,85,0.00,,SCT,0.12,VWS V14.00,2013-01-09 02:17:00,
2013-01-08 21:22:00,34.6,30.6,30.40,South,172,0.0,0.0,85,0.00,,SCT,0.12,VWS V14.00,2013-01-09 02:22:00,
2013-01-08 21:27:00,34.7,30.7,30.40,South,172,0.0,0.0,85,0.00,,SCT,0.12,VWS V14.00,2013-01-09 02:27:00,
2013-01-08 21:30:00,34.6,30.6,30.40,South,172,0.0,0.0,85,0.00,,SCT,0.12,VWS V14.00,2013-01-09 02:30:00,
2013-01-08 21:32:00,34.5,30.5,30.39,South,172,0.0,0.0,85,0.00,,SCT,0.12,VWS V14.00,2013-01-09 02:32:00,
2013-01-08 21:37:00,34.6,30.7,30.40,South,172,0.0,0.0,86,0.00,,SCT,0.12,VWS V14.00,2013-01-09 02:37:00,
2013-01-08 21:42:00,34.7,30.8,30.40,SSE,155,0.0,3.7,86,0.00,,SCT,0.12,VWS V14.00,2013-01-09 02:42:00,
2013-01-08 21:47:00,34.7,30.7,30.40,South,180,1.7,4.8,85,0.00,,SCT,0.12,VWS V14.00,2013-01-09 02:47:00,
2013-01-08 21:52:00,34.8,30.7,30.39,South,183,2.5,4.8,85,0.00,,SCT,0.12,VWS V14.00,2013-01-09 02:52:00,
2013-01-08 21:57:00,34.7,30.6,30.39,SSW,200,3.9,5.2,85,0.00,,SCT,0.12,VWS V14.00,2013-01-09 02:57:00,
2013-01-08 22:00:00,34.7,30.6,30.39,South,174,2.1,5.2,85,0.00,,SCT,0.12,VWS V14.00,2013-01-09 03:00:00,
2013-01-08 22:02:00,34.6,30.5,30.39,SE,139,0.0,5.0,85,0.00,,SCT,0.12,VWS V14.00,2013-01-09 03:02:00,
2013-01-08 22:07:00,34.7,30.6,30.39,SSE,155,3.5,5.0,85,0.00,,SCT,0.12,VWS V14.00,2013-01-09 03:07:00,
2013-01-08 22:12:00,34.7,30.5,30.39,South,174,3.8,5.0,84,0.00,,SCT,0.12,VWS V14.00,2013-01-09 03:12:00,
2013-01-08 22:17:00,34.7,30.5,30.39,South,179,3.5,5.5,84,0.00,,SCT,0.12,VWS V14.00,2013-01-09 03:17:00,
2013-01-08 22:22:00,34.7,30.4,30.39,South,179,4.2,5.5,84,0.00,,SCT,0.12,VWS V14.00,2013-01-09 03:22:00,
2013-01-08 22:27:00,34.8,30.5,30.39,South,172,0.0,5.5,84,0.00,,SCT,0.12,VWS V14.00,2013-01-09 03:27:00,
2013-01-08 22:30:00,34.8,30.5,30.39,South,172,0.0,5.5,84,0.00,,SCT,0.12,VWS V14.00,2013-01-09 03:30:00,
2013-01-08 22:32:00,34.7,30.4,30.39,SSE,160,2.1,5.7,84,0.00,,SCT,0.12,VWS V14.00,2013-01-09 03:32:00,
2013-01-08 22:37:00,34.8,30.5,30.39,South,170,0.0,5.7,84,0.00,,SCT,0.12,VWS V14.00,2013-01-09 03:37:00,
2013-01-08 22:42:00,34.6,30.2,30.39,South,173,3.6,5.7,84,0.00,,SCT,0.12,VWS V14.00,2013-01-09 03:42:00,
2013-01-08 22:47:00,34.6,30.2,30.39,South,173,0.0,5.7,84,0.00,,SCT,0.12,VWS V14.00,2013-01-09 03:47:00,
2013-01-08 22:52:00,34.7,30.3,30.39,South,183,3.4,6.0,84,0.00,,SCT,0.12,VWS V14.00,2013-01-09 03:52:00,
2013-01-08 22:57:00,34.8,30.4,30.39,East,80,0.0,6.0,84,0.00,,SCT,0.12,VWS V14.00,2013-01-09 03:57:00,
2013-01-08 23:00:00,34.7,30.3,30.39,East,80,0.0,6.0,84,0.00,,SCT,0.12,VWS V14.00,2013-01-09 04:00:00,
2013-01-08 23:02:00,34.7,30.3,30.39,East,80,0.0,0.0,84,0.00,,SCT,0.12,VWS V14.00,2013-01-09 04:02:00,
2013-01-08 23:07:00,34.7,30.3,30.39,East,80,0.0,0.0,84,0.00,,SCT,0.12,VWS V14.00,2013-01-09 04:07:00,
2013-01-08 23:12:00,34.7,30.4,30.39,East,80,0.0,0.0,84,0.00,,SCT,0.12,VWS V14.00,2013-01-09 04:12:00,
2013-01-08 23:17:00,34.7,30.4,30.39,South,183,3.4,3.4,84,0.01,,SCT,0.13,VWS V14.00,2013-01-09 04:17:00,
2013-01-08 23:22:00,34.6,30.2,30.39,South,191,2.2,8.1,84,0.01,,SCT,0.13,VWS V14.00,2013-01-09 04:22:00,
2013-01-08 23:27:00,34.8,30.4,30.39,SSW,204,2.5,8.1,84,0.01,,SCT,0.13,VWS V14.00,2013-01-09 04:27:00,
2013-01-08 23:30:00,34.8,30.4,30.39,South,187,2.4,8.1,84,0.01,,SCT,0.13,VWS V14.00,2013-01-09 04:30:00,
2013-01-08 23:32:00,34.8,30.4,30.39,SSW,198,0.0,2.7,84,0.01,,SCT,0.13,VWS V14.00,2013-01-09 04:32:00,
2013-01-08 23:37:00,34.8,30.4,30.39,South,169,0.0,4.1,84,0.01,,SCT,0.13,VWS V14.00,2013-01-09 04:37:00,
2013-01-08 23:42:00,34.8,30.4,30.39,South,169,0.0,4.1,84,0.01,,SCT,0.13,VWS V14.00,2013-01-09 04:42:00,
2013-01-08 23:47:00,34.8,30.4,30.39,SSE,149,1.2,4.1,84,0.01,,SCT,0.13,VWS V14.00,2013-01-09 04:47:00,
2013-01-08 23:52:00,34.8,30.3,30.39,SSE,155,1.8,4.3,84,0.01,,SCT,0.13,VWS V14.00,2013-01-09 04:52:00,
2013-01-08 23:57:00,35.0,30.5,30.39,SSE,167,2.7,4.3,83,0.01,,SCT,0.13,VWS V14.00,2013-01-09 04:57:00,